»·PEaware :: N429NA KSNA-KLGB

N429NA :: KSNA-KLGB

FLIGHT INFORMATION

Flight Status: Arrived
Operator: Privately registered:
United States
More flights under this callsign
Pilot: Matthew M. (8235)
Aircraft: Unknown
(B429)
More flights by this aircraft type
Origin: KSNA John Wayne-Orange Co
United States
Destination: KLGB Long Beach
United States
More flights between these airports :: More routes between these airports
Route:
File this flight plan on PilotEdge
Remarks:
Altitude:
(Current/Filed)
1,500ft
Speed:
(Current/Filed)
140kts
Departed: 21-May-20 07:27 AM
Arrived: 21-May-20 08:08 AM
Distance/Time
Traveled:
16nm/0:41
Distance/Time
To Go:
Arrived

Flight Plot

Page will automatically refresh every two minutes.


Map Options




Map Legend


Flown Route
Filed Route
Departure Airport
Arrival Airport
Navaid (VOR, NDB)
Fix

Horizontal Profiles

Position Reports

Time Latitude Longitude Heading Altitude Ground
Speed
21-May-20 07:21 33.676733 -117.870544 298 54ft 0kts
21-May-20 07:22 33.676733 -117.870544 298 54ft 0kts
21-May-20 07:23 33.676733 -117.870544 298 54ft 0kts
21-May-20 07:24 33.676733 -117.870544 298 54ft 0kts
21-May-20 07:25 33.676733 -117.870544 298 54ft 0kts
21-May-20 07:25 33.676733 -117.870544 298 54ft 0kts
21-May-20 07:27 33.682441 -117.875252 4 783ft 80kts
21-May-20 07:28 33.712026 -117.850900 34 1202ft 146kts
21-May-20 07:29 33.748490 -117.844179 314 1200ft 152kts
21-May-20 07:30 33.778381 -117.878550 322 1199ft 145kts
21-May-20 07:30 33.804128 -117.904662 318 1284ft 151kts
21-May-20 07:32 33.838098 -117.945002 297 1307ft 142kts
21-May-20 07:32 33.855318 -117.979208 301 1400ft 139kts
21-May-20 07:34 33.881697 -118.026646 302 1251ft 154kts
21-May-20 07:34 33.901700 -118.060565 309 1256ft 144kts
21-May-20 07:35 33.933530 -118.091542 326 1216ft 142kts
21-May-20 07:37 33.971673 -118.123554 322 1209ft 156kts
21-May-20 07:37 33.999560 -118.148731 317 1233ft 142kts
21-May-20 07:38 34.020289 -118.189442 278 1194ft 149kts
21-May-20 07:39 34.045970 -118.221843 344 1055ft 147kts
21-May-20 07:40 34.069427 -118.249321 5 1330ft 107kts
21-May-20 07:41 34.079215 -118.264714 173 941ft 93kts
21-May-20 07:42 34.076759 -118.256427 155 509ft 49kts
21-May-20 07:43 34.062626 -118.248950 131 900ft 71kts
21-May-20 07:44 34.052050 -118.243052 38 552ft 8kts
21-May-20 07:45 34.053102 -118.241836 32 556ft 0kts
21-May-20 07:46 34.053102 -118.241836 32 556ft 0kts
21-May-20 07:47 34.054321 -118.256898 218 1396ft 138kts
21-May-20 07:48 34.018079 -118.279879 210 1455ft 151kts
21-May-20 07:49 34.005956 -118.324933 257 1611ft 146kts
21-May-20 07:50 33.996395 -118.352255 224 2018ft 116kts
21-May-20 07:51 33.984777 -118.350918 346 2171ft 115kts
21-May-20 07:52 33.976528 -118.363871 95 2239ft 80kts
21-May-20 07:53 33.992986 -118.359465 245 2018ft 83kts
21-May-20 07:54 33.978633 -118.376401 246 1983ft 66kts
21-May-20 07:55 33.976376 -118.399362 301 1809ft 79kts
21-May-20 07:56 33.994098 -118.392468 185 1682ft 56kts
21-May-20 07:57 33.970205 -118.396352 172 2197ft 95kts
21-May-20 07:58 33.939202 -118.394779 175 2120ft 96kts
21-May-20 07:59 33.922499 -118.396180 185 1784ft 50kts
21-May-20 08:00 33.902348 -118.381813 125 2040ft 131kts
21-May-20 08:01 33.877647 -118.343994 114 1499ft 143kts
21-May-20 08:02 33.874779 -118.299683 86 1486ft 136kts
21-May-20 08:03 33.874874 -118.257346 89 1658ft 126kts
21-May-20 08:04 33.866231 -118.216733 112 1341ft 106kts
21-May-20 08:05 33.853117 -118.183795 117 1080ft 128kts
21-May-20 08:06 33.832213 -118.157420 146 798ft 69kts
21-May-20 08:07 33.821048 -118.149693 175 119ft 19kts
21-May-20 08:08 33.819300 -118.148972 177 49ft 0kts
21-May-20 08:09 33.818871 -118.148955 207 77ft 8kts
21-May-20 08:10 33.814963 -118.149150 271 81ft 27kts
21-May-20 08:11 33.812637 -118.151389 144 82ft 20kts
21-May-20 08:12 33.812136 -118.150814 83 48ft 0kts
21-May-20 08:13 33.812136 -118.150814 83 48ft 0kts
21-May-20 08:14 33.812136 -118.150814 83 48ft 0kts
21-May-20 08:15 33.812136 -118.150814 83 48ft 0kts
21-May-20 08:16 33.812136 -118.150814 83 48ft 0kts
21-May-20 08:17 33.812136 -118.150814 83 48ft 0kts
21-May-20 08:18 33.812136 -118.150814 83 48ft 0kts
21-May-20 08:19 33.812136 -118.150814 83 48ft 0kts
21-May-20 08:20 33.812136 -118.150814 83 48ft 0kts
21-May-20 08:21 33.812136 -118.150814 83 48ft 0kts

Navigation Log

Ident Type
Flight plan parsing failed, navigation log unavailable